Faber, Virginia
Current Conditions -  °F | °C
As of 2:35 AM on Wednesday 22 Oct 2014 (Local Time) from KW13 Reporting Station
Overcast Overcast  
Wind Chill: 47°   Ceiling: 5000
Heat Index: 49°   Visibility: 10mi
Dew Point: 40°   Wind: 7mph
Humidity: 71%   Direction: 320°NW
Pressure: 29.93"   Gusts: NA
Location:  37.83°N, 78.74°W
Report Text: KW13 220635Z AUTO 32006KT 10SM BKN050 OVC070 10/05 A2993 RMK AO1 T00970046
Loading
Personal Weather Stations






























Interactive Weather Map
Tropical Storm Tracking
New forecast layout! Learn more

10-Day Weather Forecast

Advertisements
Track Severe Weather on mobile